Time;durP1;ratioP1;P1;durP2;ratioP2;P2;SDS_P1;SDS_P2;PMS_P1;PMS_P2;Temp;Humidity;BMP_temperature;BMP_pressure;BME280_temperature;BME280_humidity;BME280_pressure;Samples;Min_cycle;Max_cycle;Signal;HPM_P1;HPM_P2
2023/10/23 00:01:52;;;;;;;;;;;;;;;10.24;100.00;101201.06;5068727;28;1363;-77
2023/10/23 00:04:17;;;;;;;;;;;;;;;10.16;100.00;101196.44;5066800;28;1906;-78
2023/10/23 00:06:42;;;;;;;;;;;;;;;10.16;100.00;101195.63;5070378;28;1262;-78
2023/10/23 00:09:08;;;;;;;;;;;;;;;10.13;100.00;101190.63;5071379;28;1511;-78
2023/10/23 00:11:33;;;;;;;;;;;;;;;10.20;100.00;101202.19;5077315;28;1172;-78
2023/10/23 00:13:58;;;;;;;;;;;;;;;10.20;100.00;101202.19;5120286;22;1560;-81
2023/10/23 00:16:23;;;;;;;;;;;;;;;10.22;100.00;101200.34;5124635;27;1230;-80
2023/10/23 00:18:49;;;;;;;;;;;;;;;10.23;100.00;101209.75;5111866;27;1339;-80
2023/10/23 00:21:15;;;;;;;;;;;;;;;10.23;100.00;101209.75;5113644;27;1042;-81
2023/10/23 00:23:40;;;;;;;;;;;;;;;10.23;100.00;101212.34;5111976;27;1372;-81
2023/10/23 00:26:06;;;;;;;;;;;;;;;10.22;100.00;101210.72;5110560;27;1979;-81
2023/10/23 00:28:32;;;;;;;;;;;;;;;10.23;100.00;101217.53;5107737;27;1260;-80
2023/10/23 00:30:57;;;;;;;;;;;;;;;10.22;100.00;101215.91;5116661;27;1137;-81
2023/10/23 00:33:22;;;;;;;;;;;;;;;10.23;100.00;101207.16;5108681;27;1136;-81
2023/10/23 00:35:47;;;;;;;;;;;;;;;10.20;100.00;101222.94;5115972;27;1232;-80
2023/10/23 00:38:12;;;;;;;;;;;;;;;10.19;100.00;101210.91;5109873;27;1560;-81
2023/10/23 00:40:37;;;;;;;;;;;;;;;10.20;100.00;101212.56;5109179;27;1348;-81
2023/10/23 00:43:12;;;;;;;;;;;;;;;10.19;100.00;101216.94;5109716;27;1258;-81
2023/10/23 00:45:42;;;;;;;;;;;;;;;10.16;100.00;101226.72;5104379;27;1893;-81
2023/10/23 00:48:07;;;;;;;;;;;;;;;10.15;100.00;101217.25;5110099;27;1347;-81
2023/10/23 00:50:32;;;;;;;;;;;;;;;10.16;100.00;101211.16;5101675;27;1384;-80
2023/10/23 00:52:57;;;;;;;;;;;;;;;10.17;100.00;101223.19;5107103;27;1042;-80
2023/10/23 00:55:23;;;;;;;;;;;;;;;10.17;100.00;101218.81;5114356;27;1333;-80
2023/10/23 00:57:48;;;;;;;;;;;;;;;10.19;100.00;101221.28;5114989;27;1069;-81
2023/10/23 01:00:13;;;;;;;;;;;;;;;10.21;100.00;101220.25;5104951;27;1517;-81
2023/10/23 01:02:38;;;;;;;;;;;;;;;10.23;100.00;101212.34;5097983;28;1591;-81
2023/10/23 01:05:04;;;;;;;;;;;;;;;10.24;100.00;101221.81;5105967;27;1898;-81
2023/10/23 01:07:29;;;;;;;;;;;;;;;10.25;100.00;101220.88;5109197;27;1301;-81
2023/10/23 01:09:55;;;;;;;;;;;;;;;10.26;100.00;101212.97;5109859;27;1235;-81
2023/10/23 01:12:20;;;;;;;;;;;;;;;10.26;100.00;101217.34;5106560;27;1525;-80
2023/10/23 01:14:45;;;;;;;;;;;;;;;10.27;100.00;101229.38;5104196;27;1305;-82
2023/10/23 01:17:10;;;;;;;;;;;;;;;10.27;100.00;101229.38;5102385;27;1389;-81
2023/10/23 01:19:35;;;;;;;;;;;;;;;10.27;100.00;101226.78;5108009;27;1285;-81
2023/10/23 01:22:01;;;;;;;;;;;;;;;10.26;100.00;101227.69;5105545;28;1328;-81
2023/10/23 01:24:26;;;;;;;;;;;;;;;10.25;100.00;101239.00;5105093;27;1963;-80
2023/10/23 01:26:51;;;;;;;;;;;;;;;10.25;100.00;101231.25;5107271;27;1270;-80
2023/10/23 01:29:16;;;;;;;;;;;;;;;10.25;100.00;101241.59;5113653;27;1174;-81
2023/10/23 01:31:42;;;;;;;;;;;;;;;10.27;100.00;101239.75;5107860;27;1307;-80
2023/10/23 01:34:07;;;;;;;;;;;;;;;10.24;100.00;101238.19;5099871;27;1214;-81
2023/10/23 01:36:32;;;;;;;;;;;;;;;10.22;100.00;101226.25;5102365;27;1276;-80
2023/10/23 01:38:57;;;;;;;;;;;;;;;10.22;100.00;101234.88;5113593;27;1488;-80
2023/10/23 01:41:23;;;;;;;;;;;;;;;10.22;100.00;101241.81;5096581;27;1266;-80
2023/10/23 01:43:48;;;;;;;;;;;;;;;10.20;100.00;101236.72;5110605;27;1567;-79
2023/10/23 01:46:13;;;;;;;;;;;;;;;10.21;100.00;101240.16;5107958;27;1969;-80
2023/10/23 01:48:39;;;;;;;;;;;;;;;10.20;100.00;101249.69;5107217;27;1229;-81
2023/10/23 01:51:04;;;;;;;;;;;;;;;10.21;100.00;101247.94;5106070;27;1262;-81
2023/10/23 01:53:29;;;;;;;;;;;;;;;10.18;100.00;101235.19;5102758;27;1532;-81
2023/10/23 01:55:55;;;;;;;;;;;;;;;10.17;100.00;101238.72;5100803;27;1345;-81
2023/10/23 01:58:20;;;;;;;;;;;;;;;10.16;100.00;101231.91;5110968;27;1237;-79
2023/10/23 02:00:45;;;;;;;;;;;;;;;10.16;100.00;101237.09;5104125;27;1234;-80
2023/10/23 02:03:11;;;;;;;;;;;;;;;10.11;100.00;101229.63;5104649;27;1325;-81
2023/10/23 02:05:36;;;;;;;;;;;;;;;10.11;100.00;101230.47;5105931;27;1980;-80
2023/10/23 02:08:01;;;;;;;;;;;;;;;10.11;100.00;101235.66;5109609;27;1225;-81
2023/10/23 02:10:26;;;;;;;;;;;;;;;10.09;100.00;101240.13;5102050;27;1251;-81
2023/10/23 02:12:51;;;;;;;;;;;;;;;10.06;100.00;101237.75;5105340;27;1278;-81
2023/10/23 02:15:17;;;;;;;;;;;;;;;10.02;100.00;101231.13;5107508;27;1067;-81
2023/10/23 02:17:43;;;;;;;;;;;;;;;9.96;100.00;101221.19;5107692;27;1156;-80
2023/10/23 02:20:09;;;;;;;;;;;;;;;9.89;100.00;101220.00;5096547;27;1361;-80
2023/10/23 02:22:35;;;;;;;;;;;;;;;9.84;100.00;101219.50;5099935;27;1462;-81
2023/10/23 02:25:00;;;;;;;;;;;;;;;9.77;100.00;101221.72;5108009;27;1909;-81
2023/10/23 02:27:25;;;;;;;;;;;;;;;9.72;100.00;101222.97;5096617;27;1221;-80
2023/10/23 02:29:51;;;;;;;;;;;;;;;9.65;100.00;101232.13;5104562;27;1324;-80
2023/10/23 02:32:16;;;;;;;;;;;;;;;9.63;100.00;101236.56;5094995;28;1155;-81
2023/10/23 02:34:43;;;;;;;;;;;;;;;9.61;100.00;101235.88;5104171;27;1332;-80
2023/10/23 02:37:08;;;;;;;;;;;;;;;9.61;100.00;101246.22;5095019;27;1111;-80
2023/10/23 02:39:33;;;;;;;;;;;;;;;9.61;100.00;101257.41;5103814;27;1428;-79
2023/10/23 02:41:58;;;;;;;;;;;;;;;9.62;100.00;101253.88;5111049;27;1129;-80
2023/10/23 02:44:23;;;;;;;;;;;;;;;9.62;100.00;101263.41;5113175;27;1927;-79
2023/10/23 02:46:49;;;;;;;;;;;;;;;9.61;100.00;101261.75;5113842;27;1289;-80
2023/10/23 02:49:14;;;;;;;;;;;;;;;9.58;100.00;101266.22;5124779;27;1143;-81
2023/10/23 02:51:39;;;;;;;;;;;;;;;9.55;100.00;101274.22;5128542;27;1348;-80
2023/10/23 02:54:04;;;;;;;;;;;;;;;9.56;100.00;101278.44;5122529;28;1428;-79
2023/10/23 02:56:31;;;;;;;;;;;;;;;9.57;100.00;101267.16;5123075;27;1385;-80
2023/10/23 02:58:57;;;;;;;;;;;;;;;9.57;100.00;101272.31;5135526;27;1146;-80
2023/10/23 03:01:25;;;;;;;;;;;;;;;9.55;100.00;101273.38;5131199;28;1123;-80
2023/10/23 03:03:51;;;;;;;;;;;;;;;9.52;100.00;101274.44;5125989;27;1516;-81
2023/10/23 03:06:16;;;;;;;;;;;;;;;9.53;100.00;101265.72;5099337;27;1985;-81
2023/10/23 03:08:41;;;;;;;;;;;;;;;9.54;100.00;101271.72;5109912;28;1257;-80
2023/10/23 03:11:08;;;;;;;;;;;;;;;9.52;100.00;101274.44;5105893;28;1396;-81
2023/10/23 03:13:33;;;;;;;;;;;;;;;9.50;100.00;101271.09;5105924;28;1226;-80
2023/10/23 03:15:59;;;;;;;;;;;;;;;9.47;100.00;101281.69;5101461;28;1269;-80
2023/10/23 03:18:24;;;;;;;;;;;;;;;9.45;100.00;101278.38;5108660;28;1284;-79
2023/10/23 03:20:49;;;;;;;;;;;;;;;9.45;100.00;101273.19;5101473;28;1259;-80
2023/10/23 03:23:14;;;;;;;;;;;;;;;9.47;100.00;101271.34;5102673;28;1269;-79
2023/10/23 03:25:42;;;;;;;;;;;;;;;9.46;100.00;101254.16;5106261;28;1991;-80
2023/10/23 03:28:07;;;;;;;;;;;;;;;9.47;100.00;101260.97;5099956;28;1312;-80
2023/10/23 03:30:32;;;;;;;;;;;;;;;9.49;100.00;101259.09;5113467;28;1266;-80
2023/10/23 03:32:58;;;;;;;;;;;;;;;9.50;100.00;101271.09;5104950;28;1194;-80
2023/10/23 03:35:23;;;;;;;;;;;;;;;9.52;100.00;101264.06;5100669;28;1195;-81
2023/10/23 03:37:48;;;;;;;;;;;;;;;9.52;100.00;101261.50;5093939;27;1477;-81
2023/10/23 03:40:13;;;;;;;;;;;;;;;9.51;100.00;101264.97;5117323;27;1261;-80
2023/10/23 03:42:38;;;;;;;;;;;;;;;9.51;100.00;101272.75;5112881;27;1312;-80
2023/10/23 03:45:04;;;;;;;;;;;;;;;9.53;100.00;101270.91;5102923;27;2329;-80
2023/10/23 03:47:29;;;;;;;;;;;;;;;9.53;100.00;101270.91;5102300;27;1770;-80
2023/10/23 03:49:54;;;;;;;;;;;;;;;9.54;100.00;101275.16;5106078;27;1222;-80
2023/10/23 03:52:20;;;;;;;;;;;;;;;9.55;100.00;101278.56;5104943;27;1312;-80
2023/10/23 03:54:45;;;;;;;;;;;;;;;9.54;100.00;101277.72;5103286;27;1278;-80
2023/10/23 03:57:10;;;;;;;;;;;;;;;9.55;100.00;101279.38;5108614;27;1297;-80
2023/10/23 03:59:35;;;;;;;;;;;;;;;9.55;100.00;101279.38;5100308;28;1159;-81
2023/10/23 04:02:00;;;;;;;;;;;;;;;9.55;100.00;101279.38;5108189;27;1273;-80
2023/10/23 04:04:26;;;;;;;;;;;;;;;9.53;100.00;101270.91;5109942;27;1901;-80
2023/10/23 04:06:51;;;;;;;;;;;;;;;9.50;100.00;101271.09;5118092;27;1085;-79
2023/10/23 04:09:16;;;;;;;;;;;;;;;9.51;100.00;101271.94;5107987;27;1578;-80
2023/10/23 04:11:41;;;;;;;;;;;;;;;9.52;100.00;101277.03;5113609;27;1289;-80
2023/10/23 04:14:08;;;;;;;;;;;;;;;9.52;100.00;101268.44;5116785;27;1189;-79
2023/10/23 04:16:33;;;;;;;;;;;;;;;9.52;100.00;101274.44;5108910;27;1300;-79
2023/10/23 04:18:58;;;;;;;;;;;;;;;9.51;100.00;101275.34;5108291;27;1756;-81
2023/10/23 04:21:24;;;;;;;;;;;;;;;9.52;100.00;101278.78;5104991;27;1317;-80
2023/10/23 04:23:49;;;;;;;;;;;;;;;9.51;100.00;101270.16;5102961;27;1553;-80
2023/10/23 04:26:14;;;;;;;;;;;;;;;9.52;100.00;101271.84;5098276;27;1918;-80
2023/10/23 04:28:39;;;;;;;;;;;;;;;9.51;100.00;101272.75;5101249;27;1239;-80
2023/10/23 04:31:04;;;;;;;;;;;;;;;9.47;100.00;101266.16;5105396;27;1720;-80
2023/10/23 04:33:30;;;;;;;;;;;;;;;9.45;100.00;101273.19;5094369;27;1688;-79
2023/10/23 04:35:56;;;;;;;;;;;;;;;9.42;100.00;101278.59;5098212;27;1187;-79
2023/10/23 04:38:21;;;;;;;;;;;;;;;9.40;100.00;101280.44;5104278;27;1544;-80
2023/10/23 04:40:47;;;;;;;;;;;;;;;9.37;100.00;101285.84;5100192;27;1011;-80
2023/10/23 04:43:13;;;;;;;;;;;;;;;9.34;100.00;101280.88;5109357;27;1332;-80
2023/10/23 04:45:39;;;;;;;;;;;;;;;9.30;100.00;101279.44;5107291;27;1995;-79
2023/10/23 04:48:05;;;;;;;;;;;;;;;9.28;100.00;101281.28;5102628;27;1194;-80
2023/10/23 04:50:33;;;;;;;;;;;;;;;9.28;100.00;101286.47;5099228;27;1015;-80
2023/10/23 04:52:59;;;;;;;;;;;;;;;9.28;100.00;101286.47;5107050;27;1222;-80
2023/10/23 04:55:24;;;;;;;;;;;;;;;9.28;100.00;101283.88;5105499;27;1292;-80
2023/10/23 04:57:50;;;;;;;;;;;;;;;9.25;100.00;101286.69;5105107;27;1429;-79
2023/10/23 05:00:15;;;;;;;;;;;;;;;9.20;100.00;101288.75;5103060;27;1383;-80
2023/10/23 05:02:40;;;;;;;;;;;;;;;9.16;100.00;101279.53;5111457;27;1088;-79
2023/10/23 05:05:06;;;;;;;;;;;;;;;9.12;100.00;101281.53;5112957;27;1921;-79
2023/10/23 05:07:31;;;;;;;;;;;;;;;9.08;100.00;101279.25;5112450;27;1246;-80
2023/10/23 05:09:56;;;;;;;;;;;;;;;9.04;100.00;101282.03;5114991;27;1241;-80
2023/10/23 05:12:21;;;;;;;;;;;;;;;8.99;100.00;101286.69;5108023;27;1246;-79
2023/10/23 05:14:47;;;;;;;;;;;;;;;8.95;100.00;101285.25;5113462;27;1230;-79
2023/10/23 05:17:12;;;;;;;;;;;;;;;8.95;100.00;101285.25;5114117;27;1252;-79
2023/10/23 05:19:38;;;;;;;;;;;;;;;8.91;100.00;101278.63;5111810;27;1215;-80
2023/10/23 05:22:04;;;;;;;;;;;;;;;8.86;100.00;101285.88;5106176;27;1758;-80
2023/10/23 05:24:29;;;;;;;;;;;;;;;8.83;100.00;101278.34;5104306;27;1968;-80
2023/10/23 05:26:54;;;;;;;;;;;;;;;8.85;100.00;101279.03;5111013;27;1310;-80
2023/10/23 05:29:19;;;;;;;;;;;;;;;8.85;100.00;101279.03;5105258;27;1339;-80
2023/10/23 05:31:44;;;;;;;;;;;;;;;8.84;100.00;101285.16;5109398;27;1399;-80
2023/10/23 05:34:10;;;;;;;;;;;;;;;8.80;100.00;101278.53;5105515;27;1202;-80
2023/10/23 05:36:35;;;;;;;;;;;;;;;8.77;100.00;101286.47;5104875;27;1399;-79
2023/10/23 05:39:00;;;;;;;;;;;;;;;8.71;100.00;101279.13;5108370;27;1142;-79
2023/10/23 05:41:26;;;;;;;;;;;;;;;8.68;100.00;101287.09;5101944;27;1233;-79
2023/10/23 05:43:51;;;;;;;;;;;;;;;8.68;100.00;101280.16;5100685;27;1091;-79
2023/10/23 05:46:20;;;;;;;;;;;;;;;8.67;100.00;101282.88;5105494;27;1970;-79
2023/10/23 05:48:45;;;;;;;;;;;;;;;8.66;100.00;101278.59;5108937;27;1241;-79
2023/10/23 05:51:11;;;;;;;;;;;;;;;8.70;100.00;101282.66;5107287;27;1298;-79
2023/10/23 05:53:36;;;;;;;;;;;;;;;8.72;100.00;101283.38;5104007;27;1193;-80
2023/10/23 05:56:03;;;;;;;;;;;;;;;8.70;100.00;101288.63;5103345;27;1261;-80
2023/10/23 05:58:28;;;;;;;;;;;;;;;8.67;100.00;101280.28;5106306;27;1178;-79
2023/10/23 06:00:53;;;;;;;;;;;;;;;8.68;100.00;101287.09;5107606;27;1316;-79
2023/10/23 06:03:19;;;;;;;;;;;;;;;8.66;100.00;101273.41;5103331;27;1208;-79
2023/10/23 06:05:44;;;;;;;;;;;;;;;8.66;100.00;101278.59;5102570;27;1947;-79
2023/10/23 06:08:10;;;;;;;;;;;;;;;8.66;100.00;101276.00;5104235;27;1346;-79
2023/10/23 06:10:44;;;;;;;;;;;;;;;8.67;100.00;101285.44;5107782;27;1269;-79
2023/10/23 06:13:09;;;;;;;;;;;;;;;8.66;100.00;101286.34;5106425;27;1522;-79
2023/10/23 06:15:34;;;;;;;;;;;;;;;8.61;100.00;101276.34;5107008;27;1277;-79
2023/10/23 06:18:00;;;;;;;;;;;;;;;8.61;100.00;101280.69;5107823;27;1141;-80
2023/10/23 06:20:25;;;;;;;;;;;;;;;8.62;100.00;101290.09;5107506;27;1622;-80
2023/10/23 06:22:50;;;;;;;;;;;;;;;8.61;100.00;101291.03;5110745;27;1028;-79
2023/10/23 06:25:16;;;;;;;;;;;;;;;8.55;100.00;101291.44;5105236;27;2021;-79
2023/10/23 06:27:42;;;;;;;;;;;;;;;8.48;100.00;101294.38;5104231;27;1187;-80
2023/10/23 06:30:07;;;;;;;;;;;;;;;8.38;100.00;101293.34;5105949;27;1353;-80
2023/10/23 06:32:35;;;;;;;;;;;;;;;8.31;100.00;101292.03;5106614;27;1136;-79
2023/10/23 06:35:00;;;;;;;;;;;;;;;8.27;100.00;101298.34;5105741;27;1016;-79
2023/10/23 06:37:26;;;;;;;;;;;;;;;8.24;100.00;101293.38;5095572;27;1194;-79
2023/10/23 06:39:51;;;;;;;;;;;;;;;8.16;100.00;101300.78;5110237;27;1134;-80
2023/10/23 06:42:16;;;;;;;;;;;;;;;8.09;100.00;101304.69;5103301;27;1077;-81
2023/10/23 06:44:41;;;;;;;;;;;;;;;8.07;100.00;101301.38;5097208;28;1968;-79
2023/10/23 06:47:07;;;;;;;;;;;;;;;8.04;100.00;101306.75;5097227;27;1508;-80
2023/10/23 06:49:32;;;;;;;;;;;;;;;8.02;100.00;101287.91;5102373;27;1170;-79
2023/10/23 06:51:57;;;;;;;;;;;;;;;8.03;100.00;101289.56;5105547;27;1166;-80
2023/10/23 06:54:23;;;;;;;;;;;;;;;7.98;100.00;101295.03;5109326;27;1390;-80
2023/10/23 06:56:49;;;;;;;;;;;;;;;7.96;100.00;101300.28;5108867;27;1299;-80
2023/10/23 06:59:14;;;;;;;;;;;;;;;7.96;100.00;101299.47;5108682;27;1213;-80
2023/10/23 07:01:39;;;;;;;;;;;;;;;7.96;100.00;101302.88;5095131;27;1344;-80
2023/10/23 07:04:04;;;;;;;;;;;;;;;7.94;100.00;101296.97;5113661;27;1355;-80
2023/10/23 07:06:29;;;;;;;;;;;;;;;7.94;100.00;101296.97;5084042;28;1963;-80
2023/10/23 07:08:54;;;;;;;;;;;;;;;7.93;100.00;101300.50;5085511;28;1242;-80
2023/10/23 07:11:21;;;;;;;;;;;;;;;7.90;100.00;101300.66;5078674;28;1261;-79
2023/10/23 07:13:46;;;;;;;;;;;;;;;7.89;100.00;101299.03;5084496;28;1214;-80
2023/10/23 07:16:12;;;;;;;;;;;;;;;7.88;100.00;101297.38;5073592;28;1458;-79
2023/10/23 07:18:37;;;;;;;;;;;;;;;7.82;100.00;101287.44;5083633;28;1317;-80
2023/10/23 07:21:03;;;;;;;;;;;;;;;7.76;100.00;101287.81;5073549;28;1280;-80
2023/10/23 07:23:31;;;;;;;;;;;;;;;7.75;100.00;101286.16;5082356;28;1233;-79
2023/10/23 07:26:16;;;;;;;;;;;;;;;7.76;100.00;101292.16;5082637;28;1967;-79
2023/10/23 07:28:41;;;;;;;;;;;;;;;7.73;100.00;101293.97;5087230;28;1174;-79
2023/10/23 07:31:07;;;;;;;;;;;;;;;7.72;100.00;101294.09;5082991;28;1511;-79
2023/10/23 07:33:33;;;;;;;;;;;;;;;7.73;100.00;101299.13;5093929;28;1230;-79
2023/10/23 07:35:59;;;;;;;;;;;;;;;7.74;100.00;101294.81;5080524;28;2294;-79
2023/10/23 07:38:24;;;;;;;;;;;;;;;7.78;100.00;101296.28;5087436;28;1258;-79
2023/10/23 07:40:49;;;;;;;;;;;;;;;7.82;100.00;101296.94;5083745;28;1346;-81
2023/10/23 07:43:15;;;;;;;;;;;;;;;7.84;100.00;101303.63;5093022;28;1509;-81
2023/10/23 07:45:41;;;;;;;;;;;;;;;7.88;100.00;101297.38;5082587;28;1886;-81
2023/10/23 07:48:06;;;;;;;;;;;;;;;7.88;100.00;101302.53;5084496;28;1432;-81
2023/10/23 07:50:32;;;;;;;;;;;;;;;7.87;100.00;101300.88;5080037;28;1374;-81
2023/10/23 07:52:57;;;;;;;;;;;;;;;7.88;100.00;101297.38;5089273;28;1159;-81
2023/10/23 07:55:22;;;;;;;;;;;;;;;7.93;100.00;101294.50;5087667;28;1296;-81
2023/10/23 07:57:47;;;;;;;;;;;;;;;7.95;100.00;101293.47;5084351;28;1275;-80
2023/10/23 08:00:14;;;;;;;;;;;;;;;8.00;100.00;101290.59;5087775;28;1279;-81
2023/10/23 08:02:39;;;;;;;;;;;;;;;8.03;100.00;101289.56;5079062;28;1154;-80
2023/10/23 08:05:04;;;;;;;;;;;;;;;8.08;100.00;101287.53;5084238;28;1977;-80
2023/10/23 08:07:30;;;;;;;;;;;;;;;8.07;100.00;101285.88;5081135;28;1251;-80
2023/10/23 08:09:56;;;;;;;;;;;;;;;8.11;100.00;101277.84;5079315;28;1170;-80
2023/10/23 08:12:21;;;;;;;;;;;;;;;8.11;100.00;101283.00;5077533;28;1329;-80
2023/10/23 08:14:46;;;;;;;;;;;;;;;8.10;100.00;101275.34;5080263;28;1271;-80
2023/10/23 08:17:11;;;;;;;;;;;;;;;8.09;100.00;101279.69;5080386;28;1052;-81
2023/10/23 08:19:36;;;;;;;;;;;;;;;8.14;100.00;101281.97;5082339;28;1174;-80
2023/10/23 08:22:01;;;;;;;;;;;;;;;8.18;100.00;101280.84;5082209;28;1275;-80
2023/10/23 08:24:27;;;;;;;;;;;;;;;8.21;100.00;101285.84;5078374;28;1894;-81
2023/10/23 08:26:52;;;;;;;;;;;;;;;8.20;100.00;101278.97;5086538;28;1207;-80
2023/10/23 08:29:18;;;;;;;;;;;;;;;8.21;100.00;101278.06;5092843;28;1179;-81
2023/10/23 08:31:43;;;;;;;;;;;;;;;8.26;100.00;101281.19;5086317;28;1052;-81
2023/10/23 08:34:08;;;;;;;;;;;;;;;8.33;100.00;101269.53;5089238;28;1314;-80
2023/10/23 08:36:33;;;;;;;;;;;;;;;8.46;100.00;101285.09;5091802;28;1294;-80
2023/10/23 08:38:59;;;;;;;;;;;;;;;8.42;100.00;101289.63;5083550;28;1164;-80
2023/10/23 08:41:25;;;;;;;;;;;;;;;8.39;100.00;101276.09;5081923;28;1305;-82
2023/10/23 08:43:50;;;;;;;;;;;;;;;8.42;100.00;101281.88;5090734;28;1081;-81
2023/10/23 08:46:16;;;;;;;;;;;;;;;8.44;100.00;101280.03;5084837;28;2032;-80
2023/10/23 08:48:41;;;;;;;;;;;;;;;8.50;100.00;101284.78;5091890;28;1116;-80
2023/10/23 08:51:07;;;;;;;;;;;;;;;8.54;100.00;101282.00;5088850;28;1426;-80
2023/10/23 08:53:33;;;;;;;;;;;;;;;8.59;100.00;101287.69;5093347;27;1224;-80
2023/10/23 08:56:02;;;;;;;;;;;;;;;8.63;100.00;101289.16;5088369;28;1271;-80
2023/10/23 08:58:28;;;;;;;;;;;;;;;8.67;100.00;101295.78;5097285;27;1806;-81
2023/10/23 09:00:53;;;;;;;;;;;;;;;8.71;100.00;101297.22;5087692;28;1294;-81
2023/10/23 09:03:19;;;;;;;;;;;;;;;8.77;100.00;101291.63;5087633;28;1408;-80
2023/10/23 09:05:44;;;;;;;;;;;;;;;8.83;100.00;101291.25;5104489;27;1976;-81
2023/10/23 09:08:10;;;;;;;;;;;;;;;8.89;100.00;101298.63;5088281;28;1397;-80
2023/10/23 09:10:55;;;;;;;;;;;;;;;8.94;100.00;101298.28;5088651;28;1229;-81
2023/10/23 09:13:23;;;;;;;;;;;;;;;8.97;100.00;101298.91;5084733;28;1416;-80
2023/10/23 09:15:51;;;;;;;;;;;;;;;8.98;100.00;101294.56;5080865;28;1285;-81
2023/10/23 09:18:16;;;;;;;;;;;;;;;9.00;100.00;101287.53;5088654;28;1235;-81
2023/10/23 09:20:41;;;;;;;;;;;;;;;9.04;100.00;101289.81;5093072;28;1234;-81
2023/10/23 09:23:11;;;;;;;;;;;;;;;9.10;100.00;101282.56;5080806;28;1271;-81
2023/10/23 09:25:37;;;;;;;;;;;;;;;9.11;100.00;101284.22;5089112;28;1901;-81
2023/10/23 09:28:09;;;;;;;;;;;;;;;9.12;100.00;101281.53;5080057;28;1262;-80
2023/10/23 09:30:34;;;;;;;;;;;;;;;9.16;100.00;101276.97;5089513;28;1349;-81
2023/10/23 09:33:00;;;;;;;;;;;;;;;9.19;100.00;101292.28;5088696;28;1278;-80
2023/10/23 09:35:27;;;;;;;;;;;;;;;9.22;100.00;101284.31;5088273;28;1226;-80
2023/10/23 09:37:52;;;;;;;;;;;;;;;9.23;100.00;101283.38;5084156;28;1275;-81
2023/10/23 09:40:17;;;;;;;;;;;;;;;9.27;100.00;101280.47;5091445;28;1378;-80
2023/10/23 09:42:43;;;;;;;;;;;;;;;9.31;100.00;101288.84;5089725;28;1011;-80
2023/10/23 09:45:09;;;;;;;;;;;;;;;9.33;100.00;101294.75;5083163;28;1978;-81
2023/10/23 09:47:35;;;;;;;;;;;;;;;9.36;100.00;101286.78;5084381;28;1189;-81
2023/10/23 09:50:03;;;;;;;;;;;;;;;9.37;100.00;101283.25;5085562;28;1234;-82
2023/10/23 09:52:31;;;;;;;;;;;;;;;9.38;100.00;101287.50;5087869;28;1582;-81
2023/10/23 09:54:59;;;;;;;;;;;;;;;9.38;100.00;101286.66;5086905;28;1290;-80
2023/10/23 09:57:31;;;;;;;;;;;;;;;9.44;100.00;101276.72;5085561;28;1222;-81
2023/10/23 09:59:59;;;;;;;;;;;;;;;9.53;100.00;101281.25;5106591;27;1190;-81
2023/10/23 10:02:27;;;;;;;;;;;;;;;9.60;100.00;101270.47;5082343;28;1261;-80
2023/10/23 10:05:15;;;;;;;;;;;;;;;9.73;100.00;101271.25;5085891;28;1886;-80
2023/10/23 10:07:40;;;;;;;;;;;;;;;9.70;100.00;101263.72;5084980;28;1174;-81
2023/10/23 10:10:07;;;;;;;;;;;;;;;9.75;100.00;101259.03;5088033;28;1202;-80
2023/10/23 10:12:37;;;;;;;;;;;;;;;9.81;100.00;101263.78;5079455;28;1700;-80
2023/10/23 10:15:03;;;;;;;;;;;;;;;9.89;100.00;101261.47;5083922;28;1340;-80
2023/10/23 10:17:29;;;;;;;;;;;;;;;9.96;100.00;101262.66;5082537;28;1230;-81
2023/10/23 10:19:56;;;;;;;;;;;;;;;9.96;100.00;101257.47;5079165;28;1400;-80
2023/10/23 10:22:27;;;;;;;;;;;;;;;10.03;100.00;101256.09;5085359;28;1116;-79
2023/10/23 10:24:53;;;;;;;;;;;;;;;10.08;100.00;101250.59;5086545;28;1901;-78
2023/10/23 10:27:18;;;;;;;;;;;;;;;10.13;100.00;101247.66;5084307;28;1262;-78
2023/10/23 10:29:43;;;;;;;;;;;;;;;10.19;100.00;101242.03;5085088;28;1259;-78
2023/10/23 10:32:10;;;;;;;;;;;;;;;10.26;100.00;101238.06;5078212;28;1443;-78
2023/10/23 10:34:35;;;;;;;;;;;;;;;10.31;100.00;101235.97;5082807;28;1307;-78
2023/10/23 10:37:01;;;;;;;;;;;;;;;10.37;100.00;101232.91;5083489;28;1285;-78
2023/10/23 10:39:46;;;;;;;;;;;;;;;10.47;100.00;101214.91;5086911;28;1512;-78
2023/10/23 10:42:15;;;;;;;;;;;;;;;10.48;100.00;101216.56;5085866;28;986;-78
2023/10/23 10:44:52;;;;;;;;;;;;;;;10.54;100.00;101216.94;5087036;28;1921;-78
2023/10/23 10:47:18;;;;;;;;;;;;;;;10.62;100.00;101214.59;5091216;28;1222;-78
2023/10/23 10:49:45;;;;;;;;;;;;;;;10.67;100.00;101214.25;5088320;28;1519;-78
2023/10/23 10:52:27;;;;;;;;;;;;;;;10.72;100.00;101214.72;5084994;28;1207;-78
2023/10/23 10:54:54;;;;;;;;;;;;;;;10.77;100.00;101207.41;5089773;28;1316;-78
2023/10/23 10:57:20;;;;;;;;;;;;;;;10.83;100.00;101206.13;5088126;28;1311;-78
2023/10/23 10:59:45;;;;;;;;;;;;;;;10.88;100.00;101198.81;5090099;28;1324;-79
2023/10/23 11:02:10;;;;;;;;;;;;;;;10.94;100.00;101192.31;5083591;28;1159;-78
2023/10/23 11:04:35;;;;;;;;;;;;;;;11.00;100.00;101199.63;5090849;28;1930;-79
2023/10/23 11:07:01;;;;;;;;;;;;;;;11.05;100.00;101195.72;5084979;28;1166;-78
2023/10/23 11:09:26;;;;;;;;;;;;;;;11.10;100.00;101191.00;5088665;28;1166;-78
2023/10/23 11:11:51;;;;;;;;;;;;;;;11.16;100.00;101176.72;5088643;28;1231;-79
2023/10/23 11:14:16;;;;;;;;;;;;;;;11.20;100.00;101172.13;5090126;28;1097;-78
2023/10/23 11:16:42;;;;;;;;;;;;;;;11.25;100.00;101167.41;5081019;28;1230;-79
2023/10/23 11:19:07;;;;;;;;;;;;;;;11.29;100.00;101166.19;5075298;28;1249;-79
2023/10/23 11:21:32;;;;;;;;;;;;;;;11.34;100.00;101170.06;5087008;28;1069;-78
2023/10/23 11:23:58;;;;;;;;;;;;;;;11.38;100.00;101160.28;5087138;28;1512;-79
2023/10/23 11:26:23;;;;;;;;;;;;;;;11.43;100.00;101147.75;5084341;28;1877;-78
2023/10/23 11:28:48;;;;;;;;;;;;;;;11.45;100.00;101151.03;5088157;28;1158;-78
2023/10/23 11:31:14;;;;;;;;;;;;;;;11.50;100.00;101148.91;5088019;28;1103;-78
2023/10/23 11:33:39;;;;;;;;;;;;;;;11.63;100.00;101141.78;5078953;28;1246;-78
2023/10/23 11:36:05;;;;;;;;;;;;;;;11.61;100.00;101138.47;5088258;28;1004;-79
2023/10/23 11:38:35;;;;;;;;;;;;;;;11.62;100.00;101132.34;5084874;28;1281;-78
2023/10/23 11:41:01;;;;;;;;;;;;;;;11.68;100.00;101133.59;5086964;28;1219;-79
2023/10/23 11:43:26;;;;;;;;;;;;;;;11.68;100.00;101125.81;5082815;28;1303;-79
2023/10/23 11:45:51;;;;;;;;;;;;;;;11.72;100.00;101131.59;5081968;28;1898;-79
2023/10/23 11:48:16;;;;;;;;;;;;;;;11.76;100.00;101127.81;5082610;28;1593;-78
2023/10/23 11:50:42;;;;;;;;;;;;;;;11.81;100.00;101125.63;5075175;28;1706;-79
2023/10/23 11:53:07;;;;;;;;;;;;;;;11.87;100.00;101115.63;5085359;28;1612;-78
2023/10/23 11:55:33;;;;;;;;;;;;;;;11.93;100.00;101106.50;5082660;28;1624;-79
2023/10/23 11:57:59;;;;;;;;;;;;;;;11.98;100.00;101106.91;5083030;28;1539;-78
2023/10/23 12:00:24;;;;;;;;;;;;;;;12.04;100.00;101100.38;5092718;28;1229;-78
2023/10/23 12:02:50;;;;;;;;;;;;;;;12.09;100.00;101098.22;5088347;28;1358;-78
2023/10/23 12:05:16;;;;;;;;;;;;;;;12.11;100.00;101086.75;5092519;28;1917;-79
2023/10/23 12:07:46;;;;;;;;;;;;;;;12.14;100.00;101093.44;5091132;28;1428;-79
2023/10/23 12:10:11;;;;;;;;;;;;;;;12.15;100.00;101088.13;5091978;28;1206;-79
2023/10/23 12:12:37;;;;;;;;;;;;;;;12.19;100.00;101083.50;5089536;28;1214;-79
2023/10/23 12:15:03;;;;;;;;;;;;;;;12.22;100.00;101085.84;5082144;28;1311;-80
2023/10/23 12:17:29;;;;;;;;;;;;;;;12.26;100.00;101081.19;5079080;28;1304;-80
2023/10/23 12:19:54;;;;;;;;;;;;;;;12.34;100.00;101076.19;5085949;28;1153;-79
2023/10/23 12:22:19;;;;;;;;;;;;;;;12.30;100.00;101069.59;5089309;28;1206;-79
2023/10/23 12:24:44;;;;;;;;;;;;;;;12.33;100.00;101075.38;5088108;28;1898;-79
2023/10/23 12:27:09;;;;;;;;;;;;;;;12.33;100.00;101075.38;5091578;28;1096;-79
2023/10/23 12:29:35;;;;;;;;;;;;;;;12.36;100.00;101075.09;5089470;28;1123;-80
2023/10/23 12:32:00;;;;;;;;;;;;;;;12.39;100.00;101068.81;5091555;28;1084;-80
2023/10/23 12:34:25;;;;;;;;;;;;;;;12.44;100.00;101072.69;5090803;28;1221;-79
2023/10/23 12:36:50;;;;;;;;;;;;;;;12.41;100.00;101067.72;5089200;28;1407;-79